Time;durP1;ratioP1;P1;durP2;ratioP2;P2;SDS_P1;SDS_P2;PMS_P1;PMS_P2;Temp;Humidity;BMP_temperature;BMP_pressure;BME280_temperature;BME280_humidity;BME280_pressure;Samples;Min_cycle;Max_cycle;Signal;HPM_P1;HPM_P2
2021/12/19 00:01:16;;;;;;;8.45;3.58;;;7.10;99.90;;;;;;4892865;29;20067;-78
2021/12/19 00:08:59;;;;;;;6.22;2.40;;;7.00;99.90;;;;;;4886904;29;20056;-78
2021/12/19 00:11:26;;;;;;;4.40;2.08;;;7.00;99.90;;;;;;4878309;29;20088;-78
2021/12/19 00:13:53;;;;;;;5.43;2.65;;;7.00;99.90;;;;;;4893529;29;20055;-78
2021/12/19 00:16:20;;;;;;;4.63;2.50;;;7.00;99.90;;;;;;4886880;29;20510;-79
2021/12/19 00:18:47;;;;;;;7.00;3.17;;;7.10;99.90;;;;;;4893354;29;20116;-79
2021/12/19 00:21:17;;;;;;;9.93;3.80;;;7.00;99.90;;;;;;4910384;29;20041;-79
2021/12/19 00:23:44;;;;;;;5.50;2.40;;;7.00;99.90;;;;;;4892521;29;20670;-79
2021/12/19 00:26:11;;;;;;;4.72;2.10;;;7.00;99.90;;;;;;4892526;29;20108;-80
2021/12/19 00:28:37;;;;;;;5.50;2.40;;;7.00;99.90;;;;;;4906138;29;20060;-79
2021/12/19 00:31:04;;;;;;;7.65;2.40;;;7.00;99.90;;;;;;4892547;29;20040;-79
2021/12/19 00:33:30;;;;;;;7.70;2.88;;;7.00;99.90;;;;;;4890073;29;20049;-79
2021/12/19 00:35:56;;;;;;;10.30;3.20;;;7.10;99.90;;;;;;4877856;29;20478;-79
2021/12/19 00:38:22;;;;;;;5.97;3.05;;;7.00;99.90;;;;;;4892428;29;20096;-79
2021/12/19 00:40:49;;;;;;;4.28;2.20;;;6.60;99.90;;;;;;4889226;29;20056;-79
2021/12/19 00:44:22;;;;;;;3.83;1.88;;;7.10;99.90;;;;;;4887934;29;20455;-79
2021/12/19 00:46:12;;;;;;;3.47;1.60;;;7.10;99.90;;;;;;4880753;29;20051;-79
2021/12/19 00:48:47;;;;;;;4.25;1.65;;;7.10;99.90;;;;;;4891110;29;20514;-79
2021/12/19 00:51:16;;;;;;;4.73;2.00;;;7.10;99.90;;;;;;4892167;29;20400;-79
2021/12/19 00:53:44;;;;;;;8.10;2.55;;;7.10;99.90;;;;;;4886256;29;20092;-79
2021/12/19 00:56:10;;;;;;;5.28;2.40;;;7.10;99.90;;;;;;4888513;29;20064;-80
2021/12/19 00:58:36;;;;;;;7.82;2.63;;;7.10;99.90;;;;;;4892509;29;20388;-79
2021/12/19 01:01:05;;;;;;;5.05;2.28;;;7.10;99.90;;;;;;4892442;29;20096;-79
2021/12/19 01:03:31;;;;;;;6.35;2.45;;;7.10;99.90;;;;;;4886269;29;20119;-80
2021/12/19 01:05:57;;;;;;;8.77;3.33;;;7.10;99.90;;;;;;4892622;29;20141;-80
2021/12/19 01:08:22;;;;;;;9.50;3.63;;;7.10;99.90;;;;;;4886447;29;20129;-79
2021/12/19 01:10:49;;;;;;;6.93;3.40;;;7.20;99.90;;;;;;4876562;29;21068;-80
2021/12/19 01:13:16;;;;;;;6.90;2.58;;;7.10;99.90;;;;;;4887565;29;20116;-80
2021/12/19 01:15:42;;;;;;;4.45;1.75;;;7.10;99.90;;;;;;4892226;29;20048;-80
2021/12/19 01:18:08;;;;;;;8.98;1.50;;;7.00;99.90;;;;;;4891605;29;20057;-81
2021/12/19 01:20:37;;;;;;;4.35;1.50;;;7.00;99.90;;;;;;4892089;29;20123;-79
2021/12/19 01:23:04;;;;;;;3.17;1.55;;;7.00;99.90;;;;;;4886392;29;20067;-79
2021/12/19 01:25:30;;;;;;;5.10;1.50;;;7.00;99.90;;;;;;4906948;29;20048;-80
2021/12/19 01:27:56;;;;;;;3.88;1.38;;;7.00;99.90;;;;;;4891931;29;20055;-79
2021/12/19 01:30:22;;;;;;;2.70;1.20;;;7.10;99.90;;;;;;4891306;29;20041;-79
2021/12/19 01:32:48;;;;;;;2.50;1.40;;;7.30;99.90;;;;;;4891953;29;20172;-79
2021/12/19 01:35:16;;;;;;;5.38;1.48;;;6.90;99.90;;;;;;4891300;29;20241;-79
2021/12/19 01:37:42;;;;;;;5.13;1.95;;;7.00;99.90;;;;;;4885743;29;20055;-80
2021/12/19 01:40:10;;;;;;;4.60;1.73;;;7.00;99.90;;;;;;4908170;29;20084;-79
2021/12/19 01:42:38;;;;;;;6.72;1.80;;;7.00;99.90;;;;;;4869900;29;20129;-80
2021/12/19 01:45:09;;;;;;;4.35;1.45;;;6.90;99.90;;;;;;4907995;29;20048;-79
2021/12/19 01:47:35;;;;;;;3.22;1.10;;;6.90;99.90;;;;;;4906412;29;20124;-79
2021/12/19 01:50:03;;;;;;;3.92;1.02;;;7.20;99.90;;;;;;4908184;29;20052;-80
2021/12/19 01:52:30;;;;;;;1.50;0.70;;;7.80;99.90;;;;;;4870492;29;20045;-80
2021/12/19 01:54:57;;;;;;;3.00;0.95;;;6.80;99.90;;;;;;4890216;29;20119;-80
2021/12/19 01:57:25;;;;;;;2.53;0.90;;;6.80;99.90;;;;;;4891944;29;20082;-80
2021/12/19 01:59:52;;;;;;;7.00;1.30;;;6.80;99.90;;;;;;4891330;29;20226;-79
2021/12/19 02:02:18;;;;;;;5.50;1.00;;;6.80;99.90;;;;;;4907494;29;20821;-80
2021/12/19 02:04:44;;;;;;;3.08;1.20;;;6.80;99.90;;;;;;4900601;29;20127;-80
2021/12/19 02:07:11;;;;;;;5.80;1.30;;;6.80;99.90;;;;;;4892006;29;20156;-79
2021/12/19 02:09:38;;;;;;;5.68;1.20;;;6.80;99.90;;;;;;4885150;29;20053;-79
2021/12/19 02:12:04;;;;;;;3.10;1.20;;;6.80;99.90;;;;;;4870191;29;20052;-80
2021/12/19 02:14:30;;;;;;;2.58;0.75;;;6.80;99.90;;;;;;4886031;29;20053;-81
2021/12/19 02:16:56;;;;;;;3.65;0.68;;;6.90;99.90;;;;;;4891033;29;20043;-79
2021/12/19 02:19:24;;;;;;;1.45;0.65;;;7.90;99.90;;;;;;4891270;29;21915;-79
2021/12/19 02:21:50;;;;;;;1.55;0.63;;;7.10;99.90;;;;;;4888882;29;20057;-79
2021/12/19 02:24:16;;;;;;;4.32;0.80;;;6.80;99.90;;;;;;4890301;29;20096;-79
2021/12/19 02:26:43;;;;;;;3.83;0.82;;;6.80;99.90;;;;;;4905972;29;20052;-79
2021/12/19 02:29:10;;;;;;;3.88;1.00;;;6.80;99.90;;;;;;4890818;29;20139;-79
2021/12/19 02:31:37;;;;;;;4.30;1.27;;;6.80;99.90;;;;;;4884837;29;20574;-80
2021/12/19 02:34:18;;;;;;;4.28;1.45;;;6.80;99.90;;;;;;4905736;29;20044;-79
2021/12/19 02:50:11;;;;;;;4.30;1.00;;;6.80;99.90;;;;;;4891189;29;20116;-80
2021/12/19 02:52:37;;;;;;;2.65;0.90;;;6.80;99.90;;;;;;4884481;29;20052;-79
2021/12/19 02:55:05;;;;;;;1.13;0.65;;;6.80;99.90;;;;;;4889981;29;20046;-80
2021/12/19 02:57:31;;;;;;;4.30;0.90;;;6.80;99.90;;;;;;4890210;29;20103;-80
2021/12/19 02:59:57;;;;;;;3.50;0.90;;;6.90;99.90;;;;;;4890673;29;20063;-79
2021/12/19 03:02:23;;;;;;;4.53;0.90;;;6.80;99.90;;;;;;4890693;29;20056;-78
2021/12/19 03:04:53;;;;;;;4.68;1.02;;;6.70;99.90;;;;;;4888699;29;20048;-79
2021/12/19 03:07:19;;;;;;;6.28;0.70;;;6.70;99.90;;;;;;4891016;29;20052;-79
2021/12/19 03:10:03;;;;;;;5.20;1.00;;;6.70;99.90;;;;;;4890854;29;20120;-78
2021/12/19 03:17:57;;;;;;;1.45;0.80;;;6.70;99.90;;;;;;4856827;29;20053;-79
2021/12/19 03:20:23;;;;;;;4.13;0.82;;;7.00;99.90;;;;;;4891005;29;20060;-78
2021/12/19 03:22:50;;;;;;;2.95;0.63;;;6.70;99.90;;;;;;4890369;29;20055;-78
2021/12/19 03:25:16;;;;;;;4.68;1.15;;;6.70;99.90;;;;;;4890216;29;20127;-79
2021/12/19 03:27:42;;;;;;;3.58;0.70;;;6.60;99.90;;;;;;4890338;29;20085;-79
2021/12/19 03:30:09;;;;;;;4.47;0.65;;;6.60;99.90;;;;;;4890849;29;20446;-79
2021/12/19 03:32:34;;;;;;;2.17;0.63;;;6.60;99.90;;;;;;4886850;29;20127;-79
2021/12/19 03:35:00;;;;;;;4.95;1.10;;;6.60;99.90;;;;;;4891215;29;20177;-79
2021/12/19 03:37:26;;;;;;;5.95;1.40;;;6.60;99.90;;;;;;4889114;29;20131;-78
2021/12/19 03:39:56;;;;;;;5.20;1.00;;;6.60;99.90;;;;;;4893810;29;20060;-81
2021/12/19 03:42:25;;;;;;;7.40;1.20;;;6.60;99.90;;;;;;4894150;29;20055;-78
2021/12/19 03:44:51;;;;;;;5.15;0.90;;;6.60;99.90;;;;;;4909569;29;20045;-78
2021/12/19 03:47:16;;;;;;;2.33;1.00;;;6.60;99.90;;;;;;4889144;29;20582;-78
2021/12/19 03:49:42;;;;;;;4.38;1.33;;;6.60;99.90;;;;;;4892911;29;20063;-78
2021/12/19 03:52:08;;;;;;;5.30;1.48;;;6.60;99.90;;;;;;4877274;29;20120;-78
2021/12/19 03:54:34;;;;;;;4.22;0.80;;;6.60;99.90;;;;;;4907550;29;20633;-78
2021/12/19 03:56:59;;;;;;;3.28;1.00;;;6.60;99.90;;;;;;4893291;29;20048;-79
2021/12/19 03:59:27;;;;;;;9.02;2.38;;;6.60;99.90;;;;;;4893815;29;20482;-78
2021/12/19 04:01:53;;;;;;;4.32;2.00;;;6.80;99.90;;;;;;4892897;29;20052;-79
2021/12/19 04:04:19;;;;;;;9.07;2.33;;;6.60;99.90;;;;;;4893790;29;20052;-78
2021/12/19 04:06:45;;;;;;;9.18;2.85;;;6.60;99.90;;;;;;4893031;29;20049;-79
2021/12/19 04:09:11;;;;;;;8.80;2.63;;;6.60;99.90;;;;;;4893361;29;20048;-79
2021/12/19 04:11:37;;;;;;;5.93;2.83;;;6.60;99.90;;;;;;4894129;29;20049;-79
2021/12/19 04:14:03;;;;;;;8.38;2.22;;;6.60;99.90;;;;;;4893588;29;20120;-79
2021/12/19 04:16:29;;;;;;;8.15;1.60;;;6.60;99.90;;;;;;4893817;29;20096;-79
2021/12/19 04:18:55;;;;;;;3.70;0.88;;;6.70;99.90;;;;;;4887696;29;20068;-78
2021/12/19 04:21:21;;;;;;;3.50;0.90;;;6.80;99.90;;;;;;4893186;29;20045;-78
2021/12/19 04:23:47;;;;;;;3.83;0.85;;;6.70;99.90;;;;;;4892901;29;20044;-79
2021/12/19 04:26:13;;;;;;;3.08;0.85;;;6.70;99.90;;;;;;4878046;29;20116;-79
2021/12/19 04:28:39;;;;;;;2.72;0.88;;;6.70;99.90;;;;;;4893261;29;20490;-80
2021/12/19 04:31:04;;;;;;;5.03;1.20;;;6.70;99.90;;;;;;4888536;29;20052;-78
2021/12/19 04:33:33;;;;;;;3.50;0.98;;;6.70;99.90;;;;;;4889098;29;20052;-79
2021/12/19 04:36:02;;;;;;;1.90;0.80;;;6.70;99.90;;;;;;4892092;29;20447;-79
2021/12/19 04:57:43;;;;;;;5.55;1.92;;;6.70;99.90;;;;;;4891190;29;20061;-79
2021/12/19 05:00:14;;;;;;;6.47;1.95;;;6.70;99.90;;;;;;4893139;29;20510;-80
2021/12/19 05:02:54;;;;;;;9.15;2.20;;;6.70;99.90;;;;;;4892050;29;20064;-80
2021/12/19 05:16:04;;;;;;;6.68;2.50;;;6.90;99.90;;;;;;4884673;29;20089;-79
2021/12/19 05:18:34;;;;;;;10.40;3.20;;;6.80;99.90;;;;;;4891613;29;20084;-81
2021/12/19 05:21:06;;;;;;;11.57;3.38;;;6.80;99.90;;;;;;4870993;29;20656;-79
2021/12/19 05:25:59;;;;;;;9.38;3.70;;;6.80;99.90;;;;;;4892034;29;20063;-79
2021/12/19 05:28:25;;;;;;;14.32;4.05;;;6.80;99.90;;;;;;4892532;29;20414;-82
2021/12/19 05:30:51;;;;;;;10.68;4.70;;;6.90;99.90;;;;;;4891912;29;20368;-79
2021/12/19 05:33:17;;;;;;;17.08;5.95;;;6.90;99.90;;;;;;4891819;29;20064;-79
2021/12/19 05:46:33;;;;;;;20.52;6.55;;;6.90;99.90;;;;;;4902289;29;20049;-78
2021/12/19 05:48:59;;;;;;;17.58;6.85;;;6.90;99.90;;;;;;4891149;29;20141;-79
2021/12/19 05:51:25;;;;;;;12.10;5.70;;;7.00;99.90;;;;;;4870716;29;20044;-79
2021/12/19 05:53:51;;;;;;;14.77;6.05;;;7.00;99.90;;;;;;4875661;29;20497;-79
2021/12/19 05:56:16;;;;;;;15.18;5.43;;;7.00;99.90;;;;;;4891978;29;20068;-78
2021/12/19 05:58:42;;;;;;;14.18;7.03;;;7.00;99.90;;;;;;4890479;29;20123;-79
2021/12/19 06:01:08;;;;;;;18.23;5.65;;;7.00;99.90;;;;;;4890638;29;20056;-79
2021/12/19 06:03:33;;;;;;;16.30;5.15;;;7.00;99.90;;;;;;4891306;29;20045;-79
2021/12/19 06:05:59;;;;;;;15.23;4.75;;;7.40;99.90;;;;;;4890524;29;20041;-80
2021/12/19 06:08:25;;;;;;;18.92;5.65;;;7.10;99.90;;;;;;4891394;29;20132;-79
2021/12/19 06:10:51;;;;;;;9.93;3.67;;;7.10;99.90;;;;;;4891140;29;20055;-80
2021/12/19 06:13:16;;;;;;;11.52;3.78;;;7.00;99.90;;;;;;4891649;29;20060;-79
2021/12/19 06:15:42;;;;;;;11.55;3.20;;;7.00;99.90;;;;;;4891176;29;20075;-80
2021/12/19 06:18:08;;;;;;;11.38;3.50;;;7.20;99.90;;;;;;4890146;29;20495;-79
2021/12/19 06:20:34;;;;;;;12.50;3.30;;;7.00;99.90;;;;;;4887329;29;20088;-79
2021/12/19 06:23:00;;;;;;;9.27;3.08;;;7.40;99.90;;;;;;4891030;29;20056;-80
2021/12/19 06:25:26;;;;;;;13.73;3.40;;;7.00;99.90;;;;;;4891060;29;20514;-80
2021/12/19 06:27:52;;;;;;;13.88;3.42;;;7.00;99.90;;;;;;4890290;29;20045;-79
2021/12/19 06:30:18;;;;;;;11.02;2.90;;;7.00;99.90;;;;;;4886962;29;20103;-79
2021/12/19 06:32:44;;;;;;;13.70;3.55;;;7.00;99.90;;;;;;4874674;29;20184;-80
2021/12/19 06:35:18;;;;;;;16.55;3.10;;;7.00;99.90;;;;;;4890507;29;20048;-80
2021/12/19 06:37:46;;;;;;;16.02;3.92;;;7.00;99.90;;;;;;4890277;29;20084;-80
2021/12/19 06:40:14;;;;;;;14.18;3.90;;;7.00;99.90;;;;;;4885496;29;20082;-79
2021/12/19 06:42:41;;;;;;;10.88;4.07;;;7.70;99.90;;;;;;4890922;29;20047;-79
2021/12/19 06:45:07;;;;;;;14.90;4.35;;;7.00;99.90;;;;;;4890444;29;20083;-80
2021/12/19 06:47:33;;;;;;;15.50;4.18;;;7.00;99.90;;;;;;4891183;29;20497;-79
2021/12/19 06:49:59;;;;;;;12.38;3.67;;;7.60;99.90;;;;;;4889907;29;20068;-80
2021/12/19 06:52:24;;;;;;;12.23;4.55;;;7.00;99.90;;;;;;4890500;29;20049;-79
2021/12/19 06:54:50;;;;;;;12.05;3.88;;;7.10;99.90;;;;;;4885503;29;20048;-80
2021/12/19 06:57:16;;;;;;;15.48;4.00;;;7.20;99.90;;;;;;4890414;29;20107;-80
2021/12/19 06:59:42;;;;;;;11.13;3.70;;;7.40;99.90;;;;;;4890651;29;20053;-79
2021/12/19 07:02:13;;;;;;;16.52;3.65;;;7.00;99.90;;;;;;4889565;29;20572;-80
2021/12/19 07:04:39;;;;;;;14.93;4.05;;;7.10;99.90;;;;;;4891222;29;20051;-79
2021/12/19 07:07:05;;;;;;;10.43;2.92;;;7.00;99.90;;;;;;4889443;29;20451;-79
2021/12/19 07:09:31;;;;;;;10.90;3.50;;;7.80;99.90;;;;;;4891379;29;20080;-79
2021/12/19 07:11:57;;;;;;;13.10;3.40;;;7.00;99.90;;;;;;4893726;29;20116;-79
2021/12/19 07:14:23;;;;;;;15.38;4.95;;;7.00;99.90;;;;;;4894235;29;20048;-79
2021/12/19 07:16:48;;;;;;;10.73;3.00;;;7.50;99.90;;;;;;4892458;29;20550;-79
2021/12/19 07:19:14;;;;;;;10.30;2.88;;;7.00;99.90;;;;;;4893811;29;20139;-78
2021/12/19 07:21:40;;;;;;;7.13;2.45;;;7.00;99.90;;;;;;4889224;29;20056;-79
2021/12/19 07:24:05;;;;;;;8.15;1.80;;;7.30;99.90;;;;;;4902826;29;20051;-79
2021/12/19 07:26:31;;;;;;;9.57;2.55;;;7.00;99.90;;;;;;4892995;29;20406;-79
2021/12/19 07:28:57;;;;;;;6.13;1.90;;;7.00;99.90;;;;;;4893626;29;20100;-78
2021/12/19 07:31:24;;;;;;;7.47;1.55;;;6.90;99.90;;;;;;4894922;29;20070;-78
2021/12/19 07:33:50;;;;;;;9.23;1.80;;;6.90;99.90;;;;;;4893360;29;20506;-80
2021/12/19 07:36:18;;;;;;;7.65;1.70;;;6.90;99.90;;;;;;4894072;29;20036;-79
2021/12/19 07:39:00;;;;;;;9.43;1.95;;;6.90;99.90;;;;;;4909480;29;20530;-79
2021/12/19 07:41:25;;;;;;;5.95;1.98;;;6.90;99.90;;;;;;4909852;29;20059;-79
2021/12/19 07:43:51;;;;;;;8.30;2.13;;;6.90;99.90;;;;;;4892293;29;20045;-80
2021/12/19 07:46:17;;;;;;;4.47;1.80;;;6.90;99.90;;;;;;4894148;29;20124;-79
2021/12/19 07:48:43;;;;;;;6.20;2.10;;;6.90;99.90;;;;;;4893586;29;20047;-79
2021/12/19 07:51:08;;;;;;;10.00;2.67;;;6.90;99.90;;;;;;4873435;29;20120;-79
2021/12/19 07:53:37;;;;;;;7.95;2.78;;;7.00;99.90;;;;;;4893148;29;20060;-79
2021/12/19 07:56:03;;;;;;;5.95;2.10;;;6.90;99.90;;;;;;4892780;29;20131;-78
2021/12/19 07:58:29;;;;;;;6.85;2.03;;;6.90;99.90;;;;;;4889333;29;20155;-80
2021/12/19 08:00:55;;;;;;;10.05;2.33;;;6.80;99.90;;;;;;4889198;29;20144;-79
2021/12/19 08:03:20;;;;;;;12.00;2.55;;;6.90;99.90;;;;;;4892298;29;20048;-78
2021/12/19 08:05:46;;;;;;;12.90;3.40;;;6.90;99.90;;;;;;4896001;29;20045;-78
2021/12/19 08:08:16;;;;;;;11.00;2.72;;;6.90;99.90;;;;;;4894392;29;20558;-78
2021/12/19 08:13:09;;;;;;;10.18;3.40;;;6.90;99.90;;;;;;4886407;29;20056;-79
2021/12/19 08:15:37;;;;;;;10.70;3.65;;;7.00;99.90;;;;;;4892677;29;20058;-79
2021/12/19 08:18:04;;;;;;;11.55;3.85;;;6.90;99.90;;;;;;4886131;29;20060;-78
2021/12/19 08:20:30;;;;;;;11.10;3.90;;;7.00;99.90;;;;;;4887871;29;20056;-79
2021/12/19 08:22:56;;;;;;;13.93;3.45;;;7.00;99.90;;;;;;4891326;29;20044;-79
2021/12/19 08:25:24;;;;;;;11.93;3.28;;;7.10;99.90;;;;;;4892877;29;20049;-78
2021/12/19 08:27:50;;;;;;;9.77;2.60;;;7.10;99.90;;;;;;4892874;29;20155;-78
2021/12/19 08:30:16;;;;;;;14.38;3.00;;;7.10;99.90;;;;;;4893114;29;20056;-78
2021/12/19 08:32:42;;;;;;;11.75;3.08;;;6.10;99.90;;;;;;4908194;29;20063;-79
2021/12/19 08:35:09;;;;;;;10.35;3.13;;;7.90;99.90;;;;;;4892464;29;20041;-78
2021/12/19 08:37:35;;;;;;;11.18;2.60;;;7.20;99.90;;;;;;4887389;29;20529;-78
2021/12/19 08:40:01;;;;;;;12.55;2.90;;;7.20;99.90;;;;;;4892383;29;20052;-79
2021/12/19 08:42:28;;;;;;;10.15;2.83;;;7.20;99.90;;;;;;4890569;29;20517;-79
2021/12/19 08:44:54;;;;;;;13.00;3.17;;;7.20;99.90;;;;;;4893687;29;20132;-80
2021/12/19 08:47:20;;;;;;;9.38;2.50;;;7.20;99.90;;;;;;4888551;29;20065;-78
2021/12/19 08:49:46;;;;;;;8.98;2.80;;;7.30;99.90;;;;;;4887782;29;20563;-79
2021/12/19 08:52:12;;;;;;;11.88;2.33;;;7.30;99.90;;;;;;4887541;29;20072;-79
2021/12/19 08:54:38;;;;;;;8.13;2.40;;;7.30;99.90;;;;;;4892479;29;20049;-79
2021/12/19 08:57:05;;;;;;;10.38;2.53;;;7.30;99.90;;;;;;4885951;29;20139;-78
2021/12/19 08:59:31;;;;;;;14.45;3.58;;;7.30;99.90;;;;;;4887887;29;20049;-79
2021/12/19 09:02:01;;;;;;;12.40;2.60;;;7.30;99.90;;;;;;4894283;29;20091;-79
2021/12/19 09:04:28;;;;;;;13.35;2.72;;;7.40;99.90;;;;;;4894408;29;20491;-79
2021/12/19 09:06:56;;;;;;;9.90;3.20;;;7.40;99.90;;;;;;4893646;29;20123;-78
2021/12/19 09:09:23;;;;;;;9.40;2.75;;;7.40;99.90;;;;;;4887966;29;20052;-79
2021/12/19 09:11:49;;;;;;;12.48;2.40;;;7.40;99.90;;;;;;4894478;29;20060;-79
2021/12/19 09:14:15;;;;;;;13.85;2.92;;;7.40;99.90;;;;;;4893474;29;20056;-78
2021/12/19 09:16:40;;;;;;;10.23;2.35;;;7.40;99.90;;;;;;4893199;29;20063;-79
2021/12/19 09:19:06;;;;;;;9.38;2.65;;;7.40;99.90;;;;;;4893379;29;20103;-79
2021/12/19 09:21:32;;;;;;;10.45;3.15;;;7.40;99.90;;;;;;4910166;29;20593;-79
2021/12/19 09:23:58;;;;;;;14.13;3.35;;;7.40;99.90;;;;;;4892917;29;20071;-79
2021/12/19 09:26:23;;;;;;;11.77;3.47;;;7.40;99.90;;;;;;4893236;29;20056;-79
2021/12/19 09:28:49;;;;;;;15.20;3.72;;;7.40;99.90;;;;;;4892948;29;20538;-80
2021/12/19 09:31:15;;;;;;;23.20;3.65;;;7.40;99.90;;;;;;4892790;29;20060;-78
2021/12/19 09:33:41;;;;;;;8.00;3.00;;;7.40;99.90;;;;;;4892573;29;20070;-79
2021/12/19 09:36:07;;;;;;;16.67;3.60;;;7.40;99.90;;;;;;4892008;29;20071;-79
2021/12/19 09:38:34;;;;;;;10.55;2.90;;;7.40;99.90;;;;;;4893505;29;20140;-79
2021/12/19 09:41:12;;;;;;;13.10;3.00;;;7.40;99.90;;;;;;4893952;29;20088;-80
2021/12/19 09:43:42;;;;;;;11.80;3.03;;;7.40;99.90;;;;;;4893547;29;20064;-79
2021/12/19 09:46:18;;;;;;;13.23;3.05;;;7.40;99.90;;;;;;4893537;29;20061;-79
2021/12/19 09:48:46;;;;;;;12.73;3.25;;;7.40;99.90;;;;;;4872312;29;20099;-79
2021/12/19 09:51:13;;;;;;;8.90;2.40;;;7.40;99.90;;;;;;4908509;29;20052;-79
2021/12/19 09:53:40;;;;;;;11.27;2.60;;;7.40;99.90;;;;;;4892978;29;20057;-79
2021/12/19 09:56:07;;;;;;;12.55;2.78;;;7.40;99.90;;;;;;4892520;29;20044;-79
2021/12/19 09:58:34;;;;;;;11.00;2.97;;;7.50;99.90;;;;;;4892912;29;20124;-79
2021/12/19 10:01:03;;;;;;;14.63;2.88;;;7.50;99.90;;;;;;4885913;29;20118;-84
2021/12/19 10:03:29;;;;;;;17.10;3.05;;;7.50;99.90;;;;;;4887149;29;20133;-84
2021/12/19 10:06:15;;;;;;;13.43;3.13;;;7.50;99.90;;;;;;4893761;29;20055;-82
2021/12/19 10:08:41;;;;;;;15.05;3.50;;;7.50;99.90;;;;;;4885689;29;20056;-82
2021/12/19 10:11:30;;;;;;;9.23;2.92;;;7.50;99.90;;;;;;4892764;29;20048;-83
2021/12/19 10:13:57;;;;;;;13.57;3.03;;;7.50;99.90;;;;;;4886065;29;20711;-82
2021/12/19 10:16:29;;;;;;;10.68;2.92;;;7.50;99.90;;;;;;4892769;29;20210;-80
2021/12/19 10:18:59;;;;;;;10.20;2.70;;;7.50;99.90;;;;;;4892135;29;20569;-82
2021/12/19 10:21:25;;;;;;;10.40;3.00;;;7.60;99.90;;;;;;4891165;29;20060;-79
2021/12/19 10:23:51;;;;;;;10.65;2.92;;;7.60;99.90;;;;;;4906170;29;20056;-79
2021/12/19 10:26:17;;;;;;;11.32;3.22;;;7.60;99.90;;;;;;4892387;29;20060;-79
2021/12/19 10:28:58;;;;;;;12.10;2.88;;;7.60;99.90;;;;;;4893016;29;20454;-78
2021/12/19 10:31:25;;;;;;;11.85;3.70;;;7.60;99.90;;;;;;4892682;29;20510;-80
2021/12/19 10:33:52;;;;;;;10.02;3.67;;;7.60;99.90;;;;;;4907790;29;20104;-79
2021/12/19 10:36:19;;;;;;;11.77;3.20;;;7.60;99.90;;;;;;4884236;29;20045;-79
2021/12/19 10:38:47;;;;;;;14.35;3.53;;;7.70;99.90;;;;;;4891777;29;20052;-79
2021/12/19 10:41:21;;;;;;;10.60;3.45;;;7.70;99.90;;;;;;4907363;29;20060;-79
2021/12/19 10:44:00;;;;;;;12.32;3.25;;;7.70;99.90;;;;;;4885535;29;20163;-80
2021/12/19 10:46:30;;;;;;;13.85;3.30;;;7.70;99.90;;;;;;4883969;29;20054;-81
2021/12/19 10:48:58;;;;;;;7.97;2.80;;;7.70;99.90;;;;;;4908319;29;20514;-79
2021/12/19 10:51:24;;;;;;;7.93;2.10;;;7.70;99.90;;;;;;4892112;29;20472;-78
2021/12/19 10:53:56;;;;;;;13.20;2.40;;;7.70;99.90;;;;;;4892045;29;20456;-78
2021/12/19 10:56:26;;;;;;;11.63;2.80;;;7.70;99.90;;;;;;4891927;29;20053;-78
2021/12/19 10:58:58;;;;;;;7.68;2.05;;;7.70;99.90;;;;;;4891343;29;20554;-79
2021/12/19 11:01:29;;;;;;;8.15;2.65;;;7.70;99.90;;;;;;4907009;29;20509;-77
2021/12/19 11:03:56;;;;;;;12.57;3.05;;;7.70;99.90;;;;;;4884525;29;20056;-81
2021/12/19 11:06:29;;;;;;;9.60;2.67;;;7.70;99.90;;;;;;4885976;29;20137;-80
2021/12/19 11:08:56;;;;;;;12.20;2.75;;;7.70;99.90;;;;;;4892184;29;20088;-80
2021/12/19 11:11:47;;;;;;;9.57;3.13;;;7.70;99.90;;;;;;4890780;29;20603;-80
2021/12/19 11:14:37;;;;;;;10.23;3.22;;;7.80;99.90;;;;;;4905880;29;20131;-79
2021/12/19 11:17:09;;;;;;;10.80;3.85;;;7.80;99.90;;;;;;4884138;29;20139;-81
2021/12/19 11:19:36;;;;;;;9.90;4.18;;;7.80;99.90;;;;;;4889630;29;20517;-79
2021/12/19 11:22:02;;;;;;;10.15;3.60;;;7.80;99.90;;;;;;4891175;29;20384;-79
2021/12/19 11:24:30;;;;;;;8.77;3.63;;;7.80;99.90;;;;;;4891728;29;20049;-80
2021/12/19 11:26:59;;;;;;;16.30;3.35;;;7.80;99.90;;;;;;4889444;29;20091;-82
2021/12/19 11:29:26;;;;;;;10.38;2.72;;;7.90;99.90;;;;;;4905193;29;20085;-83
2021/12/19 11:32:00;;;;;;;15.18;3.30;;;7.80;99.90;;;;;;4891759;29;20832;-84
2021/12/19 11:34:44;;;;;;;15.90;4.05;;;7.80;99.90;;;;;;4891255;29;20120;-81
2021/12/19 11:37:32;;;;;;;11.52;2.95;;;7.80;99.90;;;;;;4889428;29;20080;-83
2021/12/19 11:39:59;;;;;;;8.27;2.50;;;7.80;99.90;;;;;;4890953;29;20049;-84
2021/12/19 11:42:37;;;;;;;10.38;2.58;;;7.80;99.90;;;;;;4890893;29;20597;-83
2021/12/19 11:45:27;;;;;;;10.50;2.40;;;7.80;99.90;;;;;;4891820;29;20510;-82
2021/12/19 11:48:07;;;;;;;10.35;2.80;;;7.80;99.90;;;;;;4891694;29;20557;-83
2021/12/19 11:50:42;;;;;;;10.75;2.90;;;7.80;99.90;;;;;;4892621;29;20832;-83
2021/12/19 11:53:08;;;;;;;8.93;2.80;;;7.80;99.90;;;;;;4905090;29;20071;-83
2021/12/19 11:55:42;;;;;;;12.63;3.38;;;7.80;99.90;;;;;;4891625;29;20509;-83
2021/12/19 11:58:08;;;;;;;8.20;2.55;;;7.80;99.90;;;;;;4895300;29;20056;-83
2021/12/19 12:00:34;;;;;;;12.02;2.75;;;7.80;99.90;;;;;;4895323;29;20056;-83
2021/12/19 12:03:12;;;;;;;11.48;2.67;;;7.80;99.90;;;;;;4894805;29;20508;-84
2021/12/19 12:05:47;;;;;;;12.88;2.47;;;7.80;99.90;;;;;;4895335;29;20066;-84
2021/12/19 12:08:21;;;;;;;11.23;3.47;;;7.20;99.90;;;;;;4910900;29;20083;-84
2021/12/19 12:10:54;;;;;;;9.30;2.50;;;7.80;99.90;;;;;;4910366;29;20451;-80
2021/12/19 12:13:35;;;;;;;10.20;1.95;;;7.80;99.90;;;;;;4894461;29;20052;-80
2021/12/19 12:16:21;;;;;;;9.55;2.38;;;7.80;99.90;;;;;;4893011;29;20155;-80
2021/12/19 12:18:53;;;;;;;;;;;7.80;99.90;;;;;;4895058;29;20064;-80
2021/12/19 12:21:24;;;;;;;12.02;2.10;;;7.90;99.90;;;;;;4888068;29;19985;-80
2021/12/19 12:23:55;;;;;;;9.32;2.17;;;7.80;99.90;;;;;;4891942;29;20051;-85
2021/12/19 12:26:54;;;;;;;8.55;2.30;;;7.90;99.90;;;;;;4892779;29;20048;-83
2021/12/19 12:29:23;;;;;;;7.40;2.40;;;7.90;99.90;;;;;;4894909;29;20166;-81
2021/12/19 12:31:51;;;;;;;11.27;2.83;;;7.60;99.90;;;;;;4874468;29;20079;-81
2021/12/19 12:34:21;;;;;;;10.68;3.25;;;7.80;99.90;;;;;;4893436;29;20049;-81
2021/12/19 12:36:47;;;;;;;12.80;2.55;;;7.90;99.90;;;;;;4910074;29;20052;-81
2021/12/19 12:39:25;;;;;;;15.73;3.10;;;7.90;99.90;;;;;;4894073;29;20525;-81
2021/12/19 12:41:59;;;;;;;14.50;3.80;;;7.80;99.90;;;;;;4888764;29;20059;-81
2021/12/19 12:44:26;;;;;;;10.52;2.83;;;7.90;99.90;;;;;;4893644;29;20057;-81
2021/12/19 12:46:52;;;;;;;11.00;2.60;;;7.90;99.90;;;;;;4894798;29;20048;-81
2021/12/19 12:49:24;;;;;;;14.93;3.50;;;7.90;99.90;;;;;;4886949;29;20056;-81
2021/12/19 12:51:56;;;;;;;14.40;3.00;;;7.90;99.90;;;;;;4891273;29;20138;-80
2021/12/19 12:54:27;;;;;;;14.15;3.03;;;7.90;99.90;;;;;;4891681;29;20044;-80
2021/12/19 12:56:55;;;;;;;10.82;2.90;;;7.90;99.90;;;;;;4888384;29;20091;-80
2021/12/19 12:59:28;;;;;;;18.00;2.83;;;7.90;99.90;;;;;;4886735;29;20044;-81
2021/12/19 13:02:28;;;;;;;15.35;2.72;;;7.90;99.90;;;;;;4892621;29;20048;-81
2021/12/19 13:04:55;;;;;;;12.48;3.00;;;7.90;99.90;;;;;;4886407;29;20077;-81
2021/12/19 13:07:24;;;;;;;11.25;2.65;;;7.90;99.90;;;;;;4886374;29;20184;-81
2021/12/19 13:10:00;;;;;;;17.40;3.80;;;8.00;99.90;;;;;;4892761;29;20052;-81
2021/12/19 13:12:37;;;;;;;17.70;3.17;;;8.00;99.90;;;;;;4891256;29;20532;-81
2021/12/19 13:15:05;;;;;;;17.92;3.13;;;8.00;99.90;;;;;;4891912;29;20045;-83
2021/12/19 13:17:36;;;;;;;11.30;2.95;;;8.00;99.90;;;;;;4891571;29;20569;-81
2021/12/19 13:20:14;;;;;;;12.55;3.10;;;8.00;99.90;;;;;;4890283;29;20108;-80
2021/12/19 13:22:47;;;;;;;20.98;3.35;;;8.10;99.90;;;;;;4890206;29;20059;-81
2021/12/19 13:25:12;;;;;;;18.65;3.58;;;8.00;99.90;;;;;;4890546;29;20107;-81
2021/12/19 13:27:44;;;;;;;12.73;3.53;;;8.00;99.90;;;;;;4890538;29;20060;-80
2021/12/19 13:30:16;;;;;;;19.80;3.63;;;8.00;99.90;;;;;;4899774;29;20052;-80
2021/12/19 13:32:52;;;;;;;14.95;3.10;;;8.00;99.90;;;;;;4905441;29;20124;-81
2021/12/19 13:35:25;;;;;;;17.25;2.90;;;8.10;99.90;;;;;;4889117;29;20249;-80
2021/12/19 13:38:05;;;;;;;11.20;2.63;;;8.10;99.90;;;;;;4890235;29;20044;-80
2021/12/19 13:40:42;;;;;;;13.32;2.67;;;8.00;99.90;;;;;;4884893;29;20056;-80
2021/12/19 13:43:29;;;;;;;16.73;3.60;;;8.00;99.90;;;;;;4889633;29;20059;-81
2021/12/19 13:46:00;;;;;;;15.40;3.72;;;8.10;99.90;;;;;;4889651;29;20434;-80
2021/12/19 13:48:42;;;;;;;13.35;3.33;;;8.00;99.90;;;;;;4885190;29;20087;-81
2021/12/19 13:51:14;;;;;;;16.63;4.15;;;8.00;99.90;;;;;;4892983;29;20083;-80
2021/12/19 13:53:42;;;;;;;20.40;3.63;;;8.00;99.90;;;;;;4892070;29;20758;-81
2021/12/19 13:56:19;;;;;;;10.80;3.25;;;8.10;99.90;;;;;;4907028;29;20513;-80
2021/12/19 13:58:57;;;;;;;12.88;2.67;;;8.10;99.90;;;;;;4893440;29;20068;-81
2021/12/19 14:01:27;;;;;;;13.85;2.75;;;8.10;99.90;;;;;;4907784;29;20036;-80
2021/12/19 14:04:20;;;;;;;14.00;3.45;;;8.10;99.90;;;;;;4892583;29;20049;-80
2021/12/19 14:06:46;;;;;;;14.25;3.03;;;8.10;99.90;;;;;;4887049;29;20060;-80
2021/12/19 14:09:22;;;;;;;13.07;2.88;;;8.10;99.90;;;;;;4893611;29;20406;-80
2021/12/19 14:12:00;;;;;;;15.80;3.13;;;8.10;99.90;;;;;;4893165;29;20049;-80